sensor_id;sensor_type;location;lat;lon;timestamp;P1;durP1;ratioP1;P2;durP2;ratioP2
14592;SDS011;7383;52.354;9.756;2022-07-21T00:00:17;7.00;;;6.50;;
14592;SDS011;7383;52.354;9.756;2022-07-21T00:02:44;7.68;;;7.18;;
14592;SDS011;7383;52.354;9.756;2022-07-21T00:05:11;7.18;;;6.68;;
14592;SDS011;7383;52.354;9.756;2022-07-21T00:07:38;6.65;;;6.18;;
14592;SDS011;7383;52.354;9.756;2022-07-21T00:10:05;7.20;;;6.70;;
14592;SDS011;7383;52.354;9.756;2022-07-21T00:12:31;7.60;;;7.00;;
14592;SDS011;7383;52.354;9.756;2022-07-21T00:14:58;7.07;;;6.57;;
14592;SDS011;7383;52.354;9.756;2022-07-21T00:17:26;7.68;;;7.18;;
14592;SDS011;7383;52.354;9.756;2022-07-21T00:19:52;7.80;;;7.20;;
14592;SDS011;7383;52.354;9.756;2022-07-21T00:22:19;6.50;;;5.95;;
14592;SDS011;7383;52.354;9.756;2022-07-21T00:24:45;6.82;;;6.22;;
14592;SDS011;7383;52.354;9.756;2022-07-21T00:27:11;6.30;;;5.70;;
14592;SDS011;7383;52.354;9.756;2022-07-21T00:29:38;6.07;;;5.60;;
14592;SDS011;7383;52.354;9.756;2022-07-21T00:32:04;6.30;;;5.90;;
14592;SDS011;7383;52.354;9.756;2022-07-21T00:34:33;5.57;;;5.18;;
14592;SDS011;7383;52.354;9.756;2022-07-21T00:36:59;6.25;;;5.75;;
14592;SDS011;7383;52.354;9.756;2022-07-21T00:39:26;5.88;;;5.38;;
14592;SDS011;7383;52.354;9.756;2022-07-21T00:41:52;5.70;;;5.30;;
14592;SDS011;7383;52.354;9.756;2022-07-21T00:44:19;6.70;;;6.20;;
14592;SDS011;7383;52.354;9.756;2022-07-21T00:46:46;7.28;;;6.68;;
14592;SDS011;7383;52.354;9.756;2022-07-21T00:49:13;5.75;;;5.35;;
14592;SDS011;7383;52.354;9.756;2022-07-21T00:51:41;5.88;;;5.47;;
14592;SDS011;7383;52.354;9.756;2022-07-21T00:54:07;5.90;;;5.40;;
14592;SDS011;7383;52.354;9.756;2022-07-21T00:56:34;6.40;;;5.80;;
14592;SDS011;7383;52.354;9.756;2022-07-21T00:59:01;6.20;;;5.70;;
14592;SDS011;7383;52.354;9.756;2022-07-21T01:01:28;5.53;;;5.13;;
14592;SDS011;7383;52.354;9.756;2022-07-21T01:03:54;5.53;;;5.13;;
14592;SDS011;7383;52.354;9.756;2022-07-21T01:06:20;5.45;;;4.97;;
14592;SDS011;7383;52.354;9.756;2022-07-21T01:08:51;6.00;;;5.50;;
14592;SDS011;7383;52.354;9.756;2022-07-21T01:11:17;6.25;;;5.75;;
14592;SDS011;7383;52.354;9.756;2022-07-21T01:13:45;5.70;;;5.35;;
14592;SDS011;7383;52.354;9.756;2022-07-21T01:16:12;5.82;;;5.43;;
14592;SDS011;7383;52.354;9.756;2022-07-21T01:18:39;4.68;;;4.38;;
14592;SDS011;7383;52.354;9.756;2022-07-21T01:21:12;5.50;;;5.10;;
14592;SDS011;7383;52.354;9.756;2022-07-21T01:23:50;6.30;;;5.78;;
14592;SDS011;7383;52.354;9.756;2022-07-21T01:26:16;4.82;;;4.53;;
14592;SDS011;7383;52.354;9.756;2022-07-21T01:28:43;4.30;;;3.97;;
14592;SDS011;7383;52.354;9.756;2022-07-21T01:31:09;4.28;;;3.97;;
14592;SDS011;7383;52.354;9.756;2022-07-21T01:33:35;3.88;;;3.50;;
14592;SDS011;7383;52.354;9.756;2022-07-21T01:36:02;3.30;;;3.10;;
14592;SDS011;7383;52.354;9.756;2022-07-21T01:38:30;3.17;;;2.97;;
14592;SDS011;7383;52.354;9.756;2022-07-21T01:41:14;2.80;;;2.70;;
14592;SDS011;7383;52.354;9.756;2022-07-21T01:43:58;2.90;;;2.70;;
14592;SDS011;7383;52.354;9.756;2022-07-21T01:46:26;2.45;;;2.35;;
14592;SDS011;7383;52.354;9.756;2022-07-21T01:48:53;2.90;;;2.80;;
14592;SDS011;7383;52.354;9.756;2022-07-21T01:51:20;3.03;;;2.83;;
14592;SDS011;7383;52.354;9.756;2022-07-21T01:53:47;3.05;;;2.85;;
14592;SDS011;7383;52.354;9.756;2022-07-21T01:56:14;2.22;;;2.13;;
14592;SDS011;7383;52.354;9.756;2022-07-21T01:58:40;2.38;;;2.28;;
14592;SDS011;7383;52.354;9.756;2022-07-21T02:01:07;2.47;;;2.30;;
14592;SDS011;7383;52.354;9.756;2022-07-21T02:03:33;2.33;;;2.20;;
14592;SDS011;7383;52.354;9.756;2022-07-21T02:06:00;2.17;;;2.08;;
14592;SDS011;7383;52.354;9.756;2022-07-21T02:08:28;2.00;;;1.90;;
14592;SDS011;7383;52.354;9.756;2022-07-21T02:10:56;1.67;;;1.58;;
14592;SDS011;7383;52.354;9.756;2022-07-21T02:13:22;1.90;;;1.80;;
14592;SDS011;7383;52.354;9.756;2022-07-21T02:15:49;1.90;;;1.80;;
14592;SDS011;7383;52.354;9.756;2022-07-21T02:18:15;1.77;;;1.77;;
14592;SDS011;7383;52.354;9.756;2022-07-21T02:20:41;1.83;;;1.73;;
14592;SDS011;7383;52.354;9.756;2022-07-21T02:23:09;2.10;;;2.00;;
14592;SDS011;7383;52.354;9.756;2022-07-21T02:25:36;2.10;;;2.00;;
14592;SDS011;7383;52.354;9.756;2022-07-21T02:28:04;2.10;;;2.00;;
14592;SDS011;7383;52.354;9.756;2022-07-21T02:30:30;2.10;;;2.00;;
14592;SDS011;7383;52.354;9.756;2022-07-21T02:32:57;2.22;;;2.13;;
14592;SDS011;7383;52.354;9.756;2022-07-21T02:35:23;2.25;;;2.15;;
14592;SDS011;7383;52.354;9.756;2022-07-21T02:37:50;2.20;;;2.10;;
14592;SDS011;7383;52.354;9.756;2022-07-21T02:40:16;2.38;;;2.28;;
14592;SDS011;7383;52.354;9.756;2022-07-21T02:42:43;2.60;;;2.50;;
14592;SDS011;7383;52.354;9.756;2022-07-21T02:45:11;2.42;;;2.33;;
14592;SDS011;7383;52.354;9.756;2022-07-21T02:47:47;2.42;;;2.33;;
14592;SDS011;7383;52.354;9.756;2022-07-21T02:50:15;2.90;;;2.70;;
14592;SDS011;7383;52.354;9.756;2022-07-21T02:52:42;2.78;;;2.67;;
14592;SDS011;7383;52.354;9.756;2022-07-21T02:55:09;2.90;;;2.80;;
14592;SDS011;7383;52.354;9.756;2022-07-21T02:57:35;3.20;;;3.00;;
14592;SDS011;7383;52.354;9.756;2022-07-21T03:00:02;2.92;;;2.80;;
14592;SDS011;7383;52.354;9.756;2022-07-21T03:02:31;3.50;;;3.30;;
14592;SDS011;7383;52.354;9.756;2022-07-21T03:04:58;3.45;;;3.25;;
14592;SDS011;7383;52.354;9.756;2022-07-21T03:07:24;3.60;;;3.40;;
14592;SDS011;7383;52.354;9.756;2022-07-21T03:09:50;3.83;;;3.63;;
14592;SDS011;7383;52.354;9.756;2022-07-21T03:12:17;3.95;;;3.75;;
14592;SDS011;7383;52.354;9.756;2022-07-21T03:14:43;4.57;;;4.28;;
14592;SDS011;7383;52.354;9.756;2022-07-21T03:17:10;4.45;;;4.20;;
14592;SDS011;7383;52.354;9.756;2022-07-21T03:19:38;4.80;;;4.50;;
14592;SDS011;7383;52.354;9.756;2022-07-21T03:22:04;4.50;;;4.20;;
14592;SDS011;7383;52.354;9.756;2022-07-21T03:24:30;4.97;;;4.65;;
14592;SDS011;7383;52.354;9.756;2022-07-21T03:26:57;4.68;;;4.38;;
14592;SDS011;7383;52.354;9.756;2022-07-21T03:29:23;6.07;;;5.57;;
14592;SDS011;7383;52.354;9.756;2022-07-21T03:31:50;5.00;;;4.63;;
14592;SDS011;7383;52.354;9.756;2022-07-21T03:34:16;5.82;;;5.35;;
14592;SDS011;7383;52.354;9.756;2022-07-21T03:36:44;6.70;;;6.13;;
14592;SDS011;7383;52.354;9.756;2022-07-21T03:39:10;5.50;;;5.10;;
14592;SDS011;7383;52.354;9.756;2022-07-21T03:41:36;5.80;;;5.40;;
14592;SDS011;7383;52.354;9.756;2022-07-21T03:44:03;6.32;;;5.85;;
14592;SDS011;7383;52.354;9.756;2022-07-21T03:46:29;5.82;;;5.38;;
14592;SDS011;7383;52.354;9.756;2022-07-21T03:48:56;5.47;;;5.07;;
14592;SDS011;7383;52.354;9.756;2022-07-21T03:51:22;5.80;;;5.40;;
14592;SDS011;7383;52.354;9.756;2022-07-21T03:53:50;6.20;;;5.80;;
14592;SDS011;7383;52.354;9.756;2022-07-21T03:56:16;6.03;;;5.50;;
14592;SDS011;7383;52.354;9.756;2022-07-21T03:58:42;6.20;;;5.80;;
14592;SDS011;7383;52.354;9.756;2022-07-21T04:01:09;6.32;;;5.82;;
14592;SDS011;7383;52.354;9.756;2022-07-21T04:03:35;7.85;;;7.25;;
14592;SDS011;7383;52.354;9.756;2022-07-21T04:06:01;7.25;;;6.70;;
14592;SDS011;7383;52.354;9.756;2022-07-21T04:08:28;7.90;;;7.20;;
14592;SDS011;7383;52.354;9.756;2022-07-21T04:10:55;6.90;;;6.40;;
14592;SDS011;7383;52.354;9.756;2022-07-21T04:13:23;6.93;;;6.40;;
14592;SDS011;7383;52.354;9.756;2022-07-21T04:15:49;7.20;;;6.70;;
14592;SDS011;7383;52.354;9.756;2022-07-21T04:18:15;6.60;;;6.10;;
14592;SDS011;7383;52.354;9.756;2022-07-21T04:20:42;6.30;;;5.90;;
14592;SDS011;7383;52.354;9.756;2022-07-21T04:23:08;6.50;;;6.00;;
14592;SDS011;7383;52.354;9.756;2022-07-21T04:25:35;6.60;;;6.10;;
14592;SDS011;7383;52.354;9.756;2022-07-21T04:28:04;6.75;;;6.15;;
14592;SDS011;7383;52.354;9.756;2022-07-21T04:30:32;6.60;;;6.15;;
14592;SDS011;7383;52.354;9.756;2022-07-21T04:32:58;6.57;;;5.97;;
14592;SDS011;7383;52.354;9.756;2022-07-21T04:35:25;7.68;;;7.10;;
14592;SDS011;7383;52.354;9.756;2022-07-21T04:37:51;7.60;;;7.00;;
14592;SDS011;7383;52.354;9.756;2022-07-21T04:40:18;7.10;;;6.50;;
14592;SDS011;7383;52.354;9.756;2022-07-21T04:42:45;7.65;;;7.05;;
14592;SDS011;7383;52.354;9.756;2022-07-21T04:45:14;6.05;;;5.65;;
14592;SDS011;7383;52.354;9.756;2022-07-21T04:47:42;6.00;;;5.60;;
14592;SDS011;7383;52.354;9.756;2022-07-21T04:50:09;6.03;;;5.60;;
14592;SDS011;7383;52.354;9.756;2022-07-21T04:52:36;8.13;;;7.43;;
14592;SDS011;7383;52.354;9.756;2022-07-21T04:55:03;6.90;;;6.40;;
14592;SDS011;7383;52.354;9.756;2022-07-21T04:57:30;6.65;;;6.15;;
14592;SDS011;7383;52.354;9.756;2022-07-21T04:59:56;6.35;;;5.85;;
14592;SDS011;7383;52.354;9.756;2022-07-21T05:02:24;6.80;;;6.30;;
14592;SDS011;7383;52.354;9.756;2022-07-21T05:04:50;6.82;;;6.28;;
14592;SDS011;7383;52.354;9.756;2022-07-21T05:07:17;5.70;;;5.30;;
14592;SDS011;7383;52.354;9.756;2022-07-21T05:09:43;6.15;;;5.72;;
14592;SDS011;7383;52.354;9.756;2022-07-21T05:12:09;5.50;;;5.10;;
14592;SDS011;7383;52.354;9.756;2022-07-21T05:14:36;5.97;;;5.47;;
14592;SDS011;7383;52.354;9.756;2022-07-21T05:17:02;6.25;;;5.68;;
14592;SDS011;7383;52.354;9.756;2022-07-21T05:19:30;5.63;;;5.22;;
14592;SDS011;7383;52.354;9.756;2022-07-21T05:21:56;5.50;;;5.00;;
14592;SDS011;7383;52.354;9.756;2022-07-21T05:24:23;6.03;;;5.55;;
14592;SDS011;7383;52.354;9.756;2022-07-21T05:26:49;5.20;;;4.80;;
14592;SDS011;7383;52.354;9.756;2022-07-21T05:29:15;5.03;;;4.72;;
14592;SDS011;7383;52.354;9.756;2022-07-21T05:31:42;5.97;;;5.47;;
14592;SDS011;7383;52.354;9.756;2022-07-21T05:34:09;5.28;;;4.90;;
14592;SDS011;7383;52.354;9.756;2022-07-21T05:36:36;5.13;;;4.72;;
14592;SDS011;7383;52.354;9.756;2022-07-21T05:39:03;4.80;;;4.40;;
14592;SDS011;7383;52.354;9.756;2022-07-21T05:41:29;4.80;;;4.50;;
14592;SDS011;7383;52.354;9.756;2022-07-21T05:43:55;4.68;;;4.38;;
14592;SDS011;7383;52.354;9.756;2022-07-21T05:46:22;4.63;;;4.18;;
14592;SDS011;7383;52.354;9.756;2022-07-21T05:48:48;4.82;;;4.40;;
14592;SDS011;7383;52.354;9.756;2022-07-21T05:51:14;4.53;;;4.13;;
14592;SDS011;7383;52.354;9.756;2022-07-21T05:53:42;3.80;;;3.60;;
14592;SDS011;7383;52.354;9.756;2022-07-21T05:56:08;4.80;;;4.40;;
14592;SDS011;7383;52.354;9.756;2022-07-21T05:58:35;4.40;;;4.10;;
14592;SDS011;7383;52.354;9.756;2022-07-21T06:01:01;4.03;;;3.70;;
14592;SDS011;7383;52.354;9.756;2022-07-21T06:03:34;3.60;;;3.30;;
14592;SDS011;7383;52.354;9.756;2022-07-21T06:06:01;4.75;;;3.50;;
14592;SDS011;7383;52.354;9.756;2022-07-21T06:08:27;3.92;;;3.58;;
14592;SDS011;7383;52.354;9.756;2022-07-21T06:10:55;4.45;;;3.30;;
14592;SDS011;7383;52.354;9.756;2022-07-21T06:13:22;4.00;;;3.70;;
14592;SDS011;7383;52.354;9.756;2022-07-21T06:15:48;4.00;;;3.72;;
14592;SDS011;7383;52.354;9.756;2022-07-21T06:18:14;3.45;;;3.25;;
14592;SDS011;7383;52.354;9.756;2022-07-21T06:20:41;4.45;;;4.05;;
14592;SDS011;7383;52.354;9.756;2022-07-21T06:23:08;3.70;;;3.45;;
14592;SDS011;7383;52.354;9.756;2022-07-21T06:25:34;3.75;;;3.45;;
14592;SDS011;7383;52.354;9.756;2022-07-21T06:28:02;4.45;;;4.05;;
14592;SDS011;7383;52.354;9.756;2022-07-21T06:30:28;4.20;;;3.90;;
14592;SDS011;7383;52.354;9.756;2022-07-21T06:32:55;4.80;;;4.50;;
14592;SDS011;7383;52.354;9.756;2022-07-21T06:35:21;4.50;;;4.20;;
14592;SDS011;7383;52.354;9.756;2022-07-21T06:37:48;3.53;;;3.33;;
14592;SDS011;7383;52.354;9.756;2022-07-21T06:40:14;4.47;;;4.18;;
14592;SDS011;7383;52.354;9.756;2022-07-21T06:42:41;3.85;;;3.65;;
14592;SDS011;7383;52.354;9.756;2022-07-21T06:45:09;4.13;;;3.80;;
14592;SDS011;7383;52.354;9.756;2022-07-21T06:47:35;3.22;;;3.03;;
14592;SDS011;7383;52.354;9.756;2022-07-21T06:50:02;3.50;;;3.20;;
14592;SDS011;7383;52.354;9.756;2022-07-21T06:52:29;3.40;;;3.20;;
14592;SDS011;7383;52.354;9.756;2022-07-21T06:54:55;3.70;;;3.50;;
14592;SDS011;7383;52.354;9.756;2022-07-21T06:57:22;3.65;;;3.45;;
14592;SDS011;7383;52.354;9.756;2022-07-21T06:59:49;3.47;;;3.17;;
14592;SDS011;7383;52.354;9.756;2022-07-21T07:02:17;3.20;;;3.10;;
14592;SDS011;7383;52.354;9.756;2022-07-21T07:04:43;2.88;;;2.75;;
14592;SDS011;7383;52.354;9.756;2022-07-21T07:07:10;2.83;;;2.63;;
14592;SDS011;7383;52.354;9.756;2022-07-21T07:09:36;2.80;;;2.70;;
14592;SDS011;7383;52.354;9.756;2022-07-21T07:12:03;2.92;;;2.70;;
14592;SDS011;7383;52.354;9.756;2022-07-21T07:14:31;2.58;;;2.47;;
14592;SDS011;7383;52.354;9.756;2022-07-21T07:16:58;3.10;;;2.90;;
14592;SDS011;7383;52.354;9.756;2022-07-21T07:19:26;2.80;;;2.60;;
14592;SDS011;7383;52.354;9.756;2022-07-21T07:21:53;2.50;;;2.35;;
14592;SDS011;7383;52.354;9.756;2022-07-21T07:24:20;2.50;;;2.40;;
14592;SDS011;7383;52.354;9.756;2022-07-21T07:26:46;2.65;;;2.55;;
14592;SDS011;7383;52.354;9.756;2022-07-21T07:29:13;2.90;;;2.80;;
14592;SDS011;7383;52.354;9.756;2022-07-21T07:31:40;3.00;;;2.80;;
14592;SDS011;7383;52.354;9.756;2022-07-21T07:34:06;2.65;;;2.55;;
14592;SDS011;7383;52.354;9.756;2022-07-21T07:36:35;2.10;;;2.00;;
14592;SDS011;7383;52.354;9.756;2022-07-21T07:39:02;2.55;;;2.45;;
14592;SDS011;7383;52.354;9.756;2022-07-21T07:41:29;2.08;;;1.98;;
14592;SDS011;7383;52.354;9.756;2022-07-21T07:43:56;1.92;;;1.83;;
14592;SDS011;7383;52.354;9.756;2022-07-21T07:46:23;2.20;;;2.10;;
14592;SDS011;7383;52.354;9.756;2022-07-21T07:48:49;1.98;;;1.88;;
14592;SDS011;7383;52.354;9.756;2022-07-21T07:51:16;2.00;;;1.90;;
14592;SDS011;7383;52.354;9.756;2022-07-21T07:53:43;2.10;;;2.00;;
14592;SDS011;7383;52.354;9.756;2022-07-21T07:56:10;1.60;;;1.50;;
14592;SDS011;7383;52.354;9.756;2022-07-21T07:58:36;1.40;;;1.40;;
14592;SDS011;7383;52.354;9.756;2022-07-21T08:01:02;2.30;;;1.95;;
14592;SDS011;7383;52.354;9.756;2022-07-21T08:03:30;1.35;;;1.35;;
14592;SDS011;7383;52.354;9.756;2022-07-21T08:05:57;1.20;;;1.20;;
14592;SDS011;7383;52.354;9.756;2022-07-21T08:08:28;1.10;;;1.10;;
14592;SDS011;7383;52.354;9.756;2022-07-21T08:10:56;1.20;;;1.20;;
14592;SDS011;7383;52.354;9.756;2022-07-21T08:13:23;1.13;;;1.10;;
14592;SDS011;7383;52.354;9.756;2022-07-21T08:15:49;0.93;;;0.93;;
14592;SDS011;7383;52.354;9.756;2022-07-21T08:18:16;1.08;;;1.05;;
14592;SDS011;7383;52.354;9.756;2022-07-21T08:20:43;1.30;;;1.30;;
14592;SDS011;7383;52.354;9.756;2022-07-21T08:23:11;1.00;;;1.00;;
14592;SDS011;7383;52.354;9.756;2022-07-21T08:25:38;1.05;;;1.05;;
14592;SDS011;7383;52.354;9.756;2022-07-21T08:28:06;1.27;;;1.00;;
14592;SDS011;7383;52.354;9.756;2022-07-21T08:30:34;1.20;;;1.10;;
14592;SDS011;7383;52.354;9.756;2022-07-21T08:33:03;1.05;;;1.05;;
14592;SDS011;7383;52.354;9.756;2022-07-21T08:35:30;1.08;;;1.08;;
14592;SDS011;7383;52.354;9.756;2022-07-21T08:37:59;1.30;;;1.20;;
14592;SDS011;7383;52.354;9.756;2022-07-21T08:40:28;1.38;;;1.27;;
14592;SDS011;7383;52.354;9.756;2022-07-21T08:42:56;1.30;;;1.30;;
14592;SDS011;7383;52.354;9.756;2022-07-21T08:45:24;1.20;;;1.20;;
14592;SDS011;7383;52.354;9.756;2022-07-21T08:47:53;1.13;;;1.13;;
14592;SDS011;7383;52.354;9.756;2022-07-21T08:50:21;1.15;;;1.15;;
14592;SDS011;7383;52.354;9.756;2022-07-21T08:52:49;1.17;;;1.17;;
14592;SDS011;7383;52.354;9.756;2022-07-21T08:55:15;1.40;;;1.30;;
14592;SDS011;7383;52.354;9.756;2022-07-21T08:57:42;1.83;;;1.73;;
14592;SDS011;7383;52.354;9.756;2022-07-21T09:00:09;1.40;;;1.40;;
14592;SDS011;7383;52.354;9.756;2022-07-21T09:02:38;1.90;;;1.80;;
14592;SDS011;7383;52.354;9.756;2022-07-21T09:05:05;1.85;;;1.85;;
14592;SDS011;7383;52.354;9.756;2022-07-21T09:07:46;2.20;;;2.10;;
14592;SDS011;7383;52.354;9.756;2022-07-21T09:10:13;2.40;;;2.30;;
14592;SDS011;7383;52.354;9.756;2022-07-21T09:12:47;2.80;;;2.70;;
14592;SDS011;7383;52.354;9.756;2022-07-21T09:15:15;3.63;;;3.42;;
14592;SDS011;7383;52.354;9.756;2022-07-21T09:17:45;3.60;;;3.40;;
14592;SDS011;7383;52.354;9.756;2022-07-21T09:20:21;4.00;;;3.70;;
14592;SDS011;7383;52.354;9.756;2022-07-21T09:23:00;3.60;;;3.30;;
14592;SDS011;7383;52.354;9.756;2022-07-21T09:25:37;3.67;;;3.47;;
14592;SDS011;7383;52.354;9.756;2022-07-21T09:28:07;3.78;;;3.58;;
14592;SDS011;7383;52.354;9.756;2022-07-21T09:30:46;4.53;;;4.13;;
14592;SDS011;7383;52.354;9.756;2022-07-21T09:33:22;5.53;;;5.13;;
14592;SDS011;7383;52.354;9.756;2022-07-21T09:35:53;6.38;;;5.97;;
14592;SDS011;7383;52.354;9.756;2022-07-21T09:38:20;6.10;;;5.70;;
14592;SDS011;7383;52.354;9.756;2022-07-21T09:40:46;5.43;;;5.10;;
14592;SDS011;7383;52.354;9.756;2022-07-21T09:43:14;5.20;;;4.90;;
14592;SDS011;7383;52.354;9.756;2022-07-21T09:45:59;5.53;;;5.13;;
14592;SDS011;7383;52.354;9.756;2022-07-21T09:48:31;5.43;;;5.13;;
14592;SDS011;7383;52.354;9.756;2022-07-21T09:53:51;5.90;;;5.50;;
14592;SDS011;7383;52.354;9.756;2022-07-21T09:56:19;6.70;;;6.20;;
14592;SDS011;7383;52.354;9.756;2022-07-21T09:58:47;5.82;;;5.43;;
14592;SDS011;7383;52.354;9.756;2022-07-21T10:01:15;6.32;;;5.93;;
14592;SDS011;7383;52.354;9.756;2022-07-21T10:03:44;7.53;;;7.03;;
14592;SDS011;7383;52.354;9.756;2022-07-21T10:06:12;6.20;;;5.80;;
14592;SDS011;7383;52.354;9.756;2022-07-21T10:08:40;6.35;;;5.95;;
14592;SDS011;7383;52.354;9.756;2022-07-21T10:11:08;5.28;;;4.97;;
14592;SDS011;7383;52.354;9.756;2022-07-21T10:13:35;6.10;;;5.70;;
14592;SDS011;7383;52.354;9.756;2022-07-21T10:16:03;5.75;;;5.45;;
14592;SDS011;7383;52.354;9.756;2022-07-21T10:18:32;6.05;;;5.65;;
14592;SDS011;7383;52.354;9.756;2022-07-21T10:21:04;6.32;;;5.93;;
14592;SDS011;7383;52.354;9.756;2022-07-21T10:23:38;7.18;;;6.78;;
14592;SDS011;7383;52.354;9.756;2022-07-21T10:26:06;6.93;;;6.43;;
14592;SDS011;7383;52.354;9.756;2022-07-21T10:28:34;7.20;;;6.68;;
14592;SDS011;7383;52.354;9.756;2022-07-21T10:31:11;6.65;;;6.25;;
14592;SDS011;7383;52.354;9.756;2022-07-21T10:33:52;6.15;;;5.82;;
14592;SDS011;7383;52.354;9.756;2022-07-21T10:39:18;6.38;;;5.88;;
14592;SDS011;7383;52.354;9.756;2022-07-21T10:41:50;5.97;;;5.57;;
14592;SDS011;7383;52.354;9.756;2022-07-21T10:47:20;6.30;;;5.90;;
14592;SDS011;7383;52.354;9.756;2022-07-21T10:49:51;6.65;;;6.25;;
14592;SDS011;7383;52.354;9.756;2022-07-21T10:55:36;6.03;;;5.53;;
14592;SDS011;7383;52.354;9.756;2022-07-21T10:58:15;6.22;;;5.80;;
14592;SDS011;7383;52.354;9.756;2022-07-21T11:00:45;6.07;;;5.68;;
14592;SDS011;7383;52.354;9.756;2022-07-21T11:03:13;7.20;;;6.70;;
14592;SDS011;7383;52.354;9.756;2022-07-21T11:11:59;5.63;;;5.22;;
14592;SDS011;7383;52.354;9.756;2022-07-21T11:14:35;6.72;;;6.32;;
14592;SDS011;7383;52.354;9.756;2022-07-21T11:17:02;5.60;;;5.30;;
14592;SDS011;7383;52.354;9.756;2022-07-21T11:19:30;5.00;;;4.70;;
14592;SDS011;7383;52.354;9.756;2022-07-21T11:22:00;6.00;;;5.60;;
14592;SDS011;7383;52.354;9.756;2022-07-21T11:24:28;6.05;;;5.65;;
14592;SDS011;7383;52.354;9.756;2022-07-21T11:26:55;5.97;;;5.57;;
14592;SDS011;7383;52.354;9.756;2022-07-21T11:29:24;6.13;;;5.72;;
14592;SDS011;7383;52.354;9.756;2022-07-21T11:31:51;6.20;;;5.75;;
14592;SDS011;7383;52.354;9.756;2022-07-21T11:34:18;5.88;;;5.53;;
14592;SDS011;7383;52.354;9.756;2022-07-21T11:36:45;5.78;;;5.38;;
14592;SDS011;7383;52.354;9.756;2022-07-21T11:39:13;6.00;;;5.60;;
14592;SDS011;7383;52.354;9.756;2022-07-21T11:41:41;5.97;;;5.53;;
14592;SDS011;7383;52.354;9.756;2022-07-21T11:44:08;5.03;;;4.63;;
14592;SDS011;7383;52.354;9.756;2022-07-21T11:46:47;5.50;;;5.00;;
14592;SDS011;7383;52.354;9.756;2022-07-21T11:49:15;5.57;;;5.20;;
14592;SDS011;7383;52.354;9.756;2022-07-21T11:51:45;5.13;;;4.82;;
14592;SDS011;7383;52.354;9.756;2022-07-21T11:54:19;5.68;;;5.28;;
14592;SDS011;7383;52.354;9.756;2022-07-21T11:56:47;5.75;;;5.35;;
14592;SDS011;7383;52.354;9.756;2022-07-21T11:59:15;4.13;;;3.92;;
14592;SDS011;7383;52.354;9.756;2022-07-21T12:01:51;5.57;;;5.18;;
14592;SDS011;7383;52.354;9.756;2022-07-21T12:04:33;4.80;;;4.50;;
14592;SDS011;7383;52.354;9.756;2022-07-21T12:07:05;4.78;;;4.47;;
14592;SDS011;7383;52.354;9.756;2022-07-21T12:09:33;4.80;;;4.50;;
14592;SDS011;7383;52.354;9.756;2022-07-21T12:12:00;5.50;;;5.10;;
14592;SDS011;7383;52.354;9.756;2022-07-21T12:14:43;5.00;;;4.63;;
14592;SDS011;7383;52.354;9.756;2022-07-21T12:17:16;4.70;;;4.40;;
14592;SDS011;7383;52.354;9.756;2022-07-21T12:19:57;5.57;;;5.18;;
14592;SDS011;7383;52.354;9.756;2022-07-21T12:22:31;4.70;;;4.38;;
14592;SDS011;7383;52.354;9.756;2022-07-21T12:24:58;5.20;;;4.80;;
14592;SDS011;7383;52.354;9.756;2022-07-21T12:27:25;4.82;;;4.53;;
14592;SDS011;7383;52.354;9.756;2022-07-21T12:29:52;4.32;;;4.07;;
14592;SDS011;7383;52.354;9.756;2022-07-21T12:32:38;5.03;;;4.70;;
14592;SDS011;7383;52.354;9.756;2022-07-21T12:35:16;4.30;;;4.05;;
14592;SDS011;7383;52.354;9.756;2022-07-21T12:37:51;5.55;;;5.25;;
14592;SDS011;7383;52.354;9.756;2022-07-21T12:40:22;4.35;;;4.15;;
14592;SDS011;7383;52.354;9.756;2022-07-21T12:42:48;5.13;;;4.75;;
14592;SDS011;7383;52.354;9.756;2022-07-21T12:45:17;5.18;;;4.80;;
14592;SDS011;7383;52.354;9.756;2022-07-21T12:50:35;4.32;;;4.13;;
14592;SDS011;7383;52.354;9.756;2022-07-21T12:53:04;5.13;;;4.72;;
14592;SDS011;7383;52.354;9.756;2022-07-21T12:55:31;4.47;;;4.18;;
14592;SDS011;7383;52.354;9.756;2022-07-21T12:57:57;4.93;;;4.63;;
14592;SDS011;7383;52.354;9.756;2022-07-21T13:00:24;5.05;;;4.65;;
14592;SDS011;7383;52.354;9.756;2022-07-21T13:02:51;5.63;;;5.22;;
14592;SDS011;7383;52.354;9.756;2022-07-21T13:05:20;4.50;;;4.20;;
14592;SDS011;7383;52.354;9.756;2022-07-21T13:07:47;5.05;;;4.75;;
14592;SDS011;7383;52.354;9.756;2022-07-21T13:10:14;4.20;;;4.00;;
14592;SDS011;7383;52.354;9.756;2022-07-21T13:12:40;3.92;;;3.72;;
14592;SDS011;7383;52.354;9.756;2022-07-21T13:15:07;5.05;;;4.75;;
14592;SDS011;7383;52.354;9.756;2022-07-21T13:17:34;4.60;;;4.30;;
14592;SDS011;7383;52.354;9.756;2022-07-21T13:20:01;5.00;;;4.60;;
14592;SDS011;7383;52.354;9.756;2022-07-21T13:22:29;5.15;;;4.85;;
14592;SDS011;7383;52.354;9.756;2022-07-21T13:24:55;4.53;;;4.18;;
14592;SDS011;7383;52.354;9.756;2022-07-21T13:27:22;4.13;;;3.83;;
14592;SDS011;7383;52.354;9.756;2022-07-21T13:29:48;3.30;;;3.10;;
14592;SDS011;7383;52.354;9.756;2022-07-21T13:32:15;2.65;;;2.45;;
14592;SDS011;7383;52.354;9.756;2022-07-21T13:34:41;2.53;;;2.33;;
14592;SDS011;7383;52.354;9.756;2022-07-21T13:37:08;2.40;;;2.20;;
14592;SDS011;7383;52.354;9.756;2022-07-21T13:39:37;2.35;;;2.20;;
14592;SDS011;7383;52.354;9.756;2022-07-21T13:42:04;1.85;;;1.75;;
14592;SDS011;7383;52.354;9.756;2022-07-21T13:44:31;1.60;;;1.50;;
14592;SDS011;7383;52.354;9.756;2022-07-21T13:46:58;1.52;;;1.52;;
14592;SDS011;7383;52.354;9.756;2022-07-21T13:49:24;2.20;;;2.10;;
14592;SDS011;7383;52.354;9.756;2022-07-21T13:51:51;1.80;;;1.70;;
14592;SDS011;7383;52.354;9.756;2022-07-21T13:54:17;1.45;;;1.40;;
14592;SDS011;7383;52.354;9.756;2022-07-21T13:56:46;1.48;;;1.48;;
14592;SDS011;7383;52.354;9.756;2022-07-21T13:59:12;2.00;;;1.90;;
14592;SDS011;7383;52.354;9.756;2022-07-21T14:01:39;2.20;;;2.10;;
14592;SDS011;7383;52.354;9.756;2022-07-21T14:04:05;2.30;;;2.20;;
14592;SDS011;7383;52.354;9.756;2022-07-21T14:06:32;2.00;;;1.90;;
14592;SDS011;7383;52.354;9.756;2022-07-21T14:08:58;2.22;;;2.13;;
14592;SDS011;7383;52.354;9.756;2022-07-21T14:11:24;2.47;;;2.38;;
14592;SDS011;7383;52.354;9.756;2022-07-21T14:13:54;2.20;;;2.10;;
14592;SDS011;7383;52.354;9.756;2022-07-21T14:16:21;2.17;;;2.08;;
14592;SDS011;7383;52.354;9.756;2022-07-21T14:18:47;2.38;;;2.28;;
14592;SDS011;7383;52.354;9.756;2022-07-21T14:21:14;2.40;;;2.30;;
14592;SDS011;7383;52.354;9.756;2022-07-21T14:23:40;2.20;;;2.10;;
14592;SDS011;7383;52.354;9.756;2022-07-21T14:26:06;3.40;;;2.70;;
14592;SDS011;7383;52.354;9.756;2022-07-21T14:28:33;3.30;;;3.10;;
14592;SDS011;7383;52.354;9.756;2022-07-21T14:31:00;2.60;;;2.47;;
14592;SDS011;7383;52.354;9.756;2022-07-21T14:33:27;2.30;;;2.20;;
14592;SDS011;7383;52.354;9.756;2022-07-21T14:35:55;2.22;;;2.03;;
14592;SDS011;7383;52.354;9.756;2022-07-21T14:38:21;2.03;;;1.92;;
14592;SDS011;7383;52.354;9.756;2022-07-21T14:40:47;2.10;;;2.00;;
14592;SDS011;7383;52.354;9.756;2022-07-21T14:43:14;2.22;;;2.13;;
14592;SDS011;7383;52.354;9.756;2022-07-21T14:45:40;1.60;;;1.60;;
14592;SDS011;7383;52.354;9.756;2022-07-21T14:48:08;1.67;;;1.67;;
14592;SDS011;7383;52.354;9.756;2022-07-21T14:50:34;2.05;;;1.90;;
14592;SDS011;7383;52.354;9.756;2022-07-21T14:53:01;1.73;;;1.63;;
14592;SDS011;7383;52.354;9.756;2022-07-21T14:55:28;1.55;;;1.48;;
14592;SDS011;7383;52.354;9.756;2022-07-21T14:57:55;1.65;;;1.55;;
14592;SDS011;7383;52.354;9.756;2022-07-21T15:00:21;1.65;;;1.60;;
14592;SDS011;7383;52.354;9.756;2022-07-21T15:02:49;1.48;;;1.38;;
14592;SDS011;7383;52.354;9.756;2022-07-21T15:05:17;1.35;;;1.35;;
14592;SDS011;7383;52.354;9.756;2022-07-21T15:07:43;2.10;;;2.00;;
14592;SDS011;7383;52.354;9.756;2022-07-21T15:10:09;1.75;;;1.65;;
14592;SDS011;7383;52.354;9.756;2022-07-21T15:12:36;1.50;;;1.40;;
14592;SDS011;7383;52.354;9.756;2022-07-21T15:15:04;1.80;;;1.70;;
14592;SDS011;7383;52.354;9.756;2022-07-21T15:17:31;1.80;;;1.70;;
14592;SDS011;7383;52.354;9.756;2022-07-21T15:19:58;1.75;;;1.65;;
14592;SDS011;7383;52.354;9.756;2022-07-21T15:22:26;1.70;;;1.60;;
14592;SDS011;7383;52.354;9.756;2022-07-21T15:24:55;1.40;;;1.40;;